Time;durP1;ratioP1;P1;durP2;ratioP2;P2;SDS_P1;SDS_P2;PMS_P1;PMS_P2;Temp;Humidity;BMP_temperature;BMP_pressure;BME280_temperature;BME280_humidity;BME280_pressure;Samples;Min_cycle;Max_cycle;Signal;HPM_P1;HPM_P2
2022/03/31 00:00:23;;;;;;;24.40;17.63;;;12.30;99.90;;;;;;5053609;28;20202;-64
2022/03/31 00:02:48;;;;;;;20.87;17.03;;;12.20;99.90;;;;;;5053272;28;20198;-64
2022/03/31 00:05:14;;;;;;;23.77;17.73;;;12.20;99.90;;;;;;5053654;28;20582;-62
2022/03/31 00:08:00;;;;;;;24.03;18.07;;;12.30;99.90;;;;;;5053501;28;20249;-64
2022/03/31 00:10:34;;;;;;;24.30;17.60;;;12.40;99.90;;;;;;5052786;28;20254;-63
2022/03/31 00:13:03;;;;;;;22.93;18.23;;;12.30;99.90;;;;;;5052514;28;20313;-64
2022/03/31 00:15:30;;;;;;;23.07;19.00;;;12.50;99.90;;;;;;5053079;28;20242;-64
2022/03/31 00:17:57;;;;;;;28.43;20.50;;;12.40;99.90;;;;;;5052813;28;20250;-64
2022/03/31 00:20:23;;;;;;;25.80;19.50;;;12.20;99.90;;;;;;5053258;28;20163;-62
2022/03/31 00:22:48;;;;;;;29.63;20.30;;;12.20;99.90;;;;;;5051336;28;20171;-63
2022/03/31 00:25:14;;;;;;;24.50;18.37;;;12.40;99.90;;;;;;5053291;28;20175;-63
2022/03/31 00:27:41;;;;;;;28.53;20.00;;;11.90;99.90;;;;;;5052765;28;20626;-63
2022/03/31 00:30:09;;;;;;;31.17;22.33;;;12.10;99.90;;;;;;5053166;28;20197;-63
2022/03/31 00:32:35;;;;;;;30.00;22.27;;;12.10;99.90;;;;;;5049566;28;20714;-62
2022/03/31 00:35:01;;;;;;;23.87;20.93;;;12.40;99.90;;;;;;5049954;28;20226;-61
2022/03/31 00:37:27;;;;;;;27.50;22.13;;;12.20;99.90;;;;;;5052522;28;20209;-60
2022/03/31 00:39:54;;;;;;;24.77;20.37;;;12.40;99.90;;;;;;5052457;28;20659;-62
2022/03/31 00:42:19;;;;;;;22.07;19.33;;;12.70;99.90;;;;;;5051702;28;20213;-59
2022/03/31 00:44:45;;;;;;;26.87;20.00;;;12.20;99.90;;;;;;5052310;28;20563;-62
2022/03/31 00:47:11;;;;;;;25.67;20.00;;;12.60;99.90;;;;;;5052605;28;20187;-63
2022/03/31 00:49:37;;;;;;;25.67;20.10;;;12.30;99.90;;;;;;5051987;28;20195;-62
2022/03/31 00:52:03;;;;;;;27.27;21.20;;;;;;;;;;5052369;28;20205;-63
2022/03/31 00:54:30;;;;;;;27.63;21.00;;;12.20;99.90;;;;;;5051884;28;20628;-63
2022/03/31 00:56:57;;;;;;;22.43;19.70;;;;;;;;;;5051746;28;20205;-63
2022/03/31 00:59:22;;;;;;;23.57;19.63;;;12.10;99.90;;;;;;5052578;28;20171;-61
2022/03/31 01:01:49;;;;;;;25.80;20.77;;;11.90;99.90;;;;;;5051861;28;20506;-62
2022/03/31 01:04:15;;;;;;;24.97;19.17;;;12.10;99.90;;;;;;5052367;28;20250;-62
2022/03/31 01:06:44;;;;;;;22.17;18.87;;;12.20;99.90;;;;;;5052034;28;20194;-62
2022/03/31 01:09:12;;;;;;;21.63;19.07;;;12.00;99.90;;;;;;5052131;28;20918;-62
2022/03/31 01:11:41;;;;;;;24.03;18.90;;;12.80;99.90;;;;;;5051638;28;20304;-61
2022/03/31 01:14:08;;;;;;;26.63;18.90;;;12.10;99.90;;;;;;5052233;28;20552;-63
2022/03/31 01:16:34;;;;;;;25.30;19.27;;;12.20;99.90;;;;;;5051915;28;20187;-63
2022/03/31 01:19:08;;;;;;;25.40;19.03;;;12.00;99.90;;;;;;5051870;28;20709;-61
2022/03/31 01:21:47;;;;;;;21.83;18.77;;;12.00;99.90;;;;;;5050634;28;20167;-63
2022/03/31 01:24:14;;;;;;;22.53;18.73;;;;;;;;;;5051795;28;20182;-61
2022/03/31 01:26:41;;;;;;;22.27;19.20;;;12.50;99.90;;;;;;5051785;28;20190;-63
2022/03/31 01:29:08;;;;;;;23.73;18.47;;;12.10;99.90;;;;;;5052101;28;20224;-62
2022/03/31 01:31:34;;;;;;;19.83;17.40;;;;;;;;;;5051819;28;20159;-63
2022/03/31 01:34:00;;;;;;;21.70;18.70;;;11.90;99.90;;;;;;5051522;28;20205;-63
2022/03/31 01:36:26;;;;;;;19.93;17.87;;;12.00;99.90;;;;;;5052103;28;20286;-60
2022/03/31 01:38:53;;;;;;;22.97;17.93;;;12.80;99.90;;;;;;5051824;28;20171;-62
2022/03/31 01:41:19;;;;;;;22.83;18.33;;;12.10;99.90;;;;;;5051272;28;20229;-62
2022/03/31 01:43:44;;;;;;;20.90;18.37;;;12.70;99.90;;;;;;5051790;28;20198;-62
2022/03/31 01:46:10;;;;;;;19.30;17.30;;;12.10;99.90;;;;;;5051957;28;20273;-61
2022/03/31 01:48:36;;;;;;;20.20;17.90;;;12.20;99.90;;;;;;5051822;28;20233;-63
2022/03/31 01:51:05;;;;;;;22.40;18.97;;;12.50;99.90;;;;;;5051714;28;20171;-62
2022/03/31 01:53:39;;;;;;;19.40;17.40;;;12.40;99.90;;;;;;5051571;28;20301;-62
2022/03/31 01:56:06;;;;;;;21.23;17.70;;;;;;;;;;5052064;28;20269;-61
2022/03/31 01:58:32;;;;;;;21.47;19.17;;;12.20;99.90;;;;;;5052656;28;20587;-62
2022/03/31 02:00:58;;;;;;;22.43;19.87;;;12.60;99.90;;;;;;5051142;28;20175;-61
2022/03/31 02:03:24;;;;;;;23.10;18.93;;;12.30;99.90;;;;;;5051338;28;20228;-63
2022/03/31 02:05:50;;;;;;;21.90;19.47;;;12.20;99.90;;;;;;5051446;28;20286;-63
2022/03/31 02:08:17;;;;;;;23.03;20.07;;;12.20;99.90;;;;;;5051567;28;20178;-62
2022/03/31 02:10:42;;;;;;;22.57;19.87;;;12.40;99.90;;;;;;5051344;28;20179;-63
2022/03/31 02:13:08;;;;;;;23.23;19.77;;;;;;;;;;5050660;28;20182;-64
2022/03/31 02:15:34;;;;;;;22.07;19.77;;;12.10;99.90;;;;;;5051281;28;20202;-63
2022/03/31 02:18:02;;;;;;;23.20;20.70;;;12.10;99.90;;;;;;5051374;28;20632;-63
2022/03/31 02:20:30;;;;;;;24.87;20.60;;;12.10;99.90;;;;;;5050688;28;20178;-63
2022/03/31 02:23:00;;;;;;;23.27;20.33;;;12.40;99.90;;;;;;5050968;28;20202;-63
2022/03/31 02:25:25;;;;;;;22.63;20.23;;;12.40;99.90;;;;;;5050861;28;20183;-63
2022/03/31 02:27:52;;;;;;;25.03;20.67;;;12.30;99.90;;;;;;5051513;28;20185;-63
2022/03/31 02:30:19;;;;;;;26.57;20.00;;;12.40;99.90;;;;;;5051482;28;20179;-61
2022/03/31 02:32:45;;;;;;;26.37;19.83;;;12.50;99.90;;;;;;5052883;28;20176;-60
2022/03/31 02:35:11;;;;;;;21.90;19.60;;;12.40;99.90;;;;;;5054988;28;20553;-59
2022/03/31 02:37:37;;;;;;;22.60;19.60;;;12.50;99.90;;;;;;5055091;28;20201;-60
2022/03/31 02:40:04;;;;;;;22.37;20.03;;;12.10;99.90;;;;;;5055412;28;20175;-59
2022/03/31 02:42:29;;;;;;;26.33;20.67;;;12.20;99.90;;;;;;5054530;28;20682;-60
2022/03/31 02:44:55;;;;;;;24.03;21.17;;;12.10;99.90;;;;;;5055217;28;20179;-60
2022/03/31 02:47:21;;;;;;;24.33;20.87;;;;;;;;;;5054973;28;20206;-60
2022/03/31 02:49:47;;;;;;;25.13;21.23;;;;;;;;;;5054800;28;20190;-59
2022/03/31 02:52:12;;;;;;;25.17;20.77;;;12.00;99.90;;;;;;5054339;28;20179;-61
2022/03/31 02:57:22;;;;;;;24.73;21.00;;;12.00;99.90;;;;;;5054327;28;20197;-61
2022/03/31 02:59:48;;;;;;;23.80;20.40;;;12.00;99.90;;;;;;5055098;28;20182;-60
2022/03/31 03:02:13;;;;;;;26.23;22.03;;;12.30;99.90;;;;;;5052961;28;20181;-61
2022/03/31 03:04:39;;;;;;;27.47;21.03;;;12.60;99.90;;;;;;5054542;28;20283;-61
2022/03/31 03:07:05;;;;;;;26.07;21.80;;;11.80;99.90;;;;;;5056095;28;20203;-60
2022/03/31 03:09:31;;;;;;;27.30;21.90;;;11.70;99.90;;;;;;5054710;28;20544;-59
2022/03/31 03:11:57;;;;;;;25.60;21.17;;;11.20;99.90;;;;;;5054205;28;20195;-61
2022/03/31 03:14:23;;;;;;;23.83;20.80;;;11.40;99.90;;;;;;5054399;28;20231;-56
2022/03/31 03:16:49;;;;;;;22.90;20.20;;;;;;;;;;5054535;28;20668;-61
2022/03/31 03:19:14;;;;;;;22.50;19.60;;;11.60;99.90;;;;;;5053780;28;20175;-60
2022/03/31 03:21:41;;;;;;;23.77;20.30;;;11.70;99.90;;;;;;5054137;28;20830;-56
2022/03/31 03:24:06;;;;;;;27.10;19.80;;;11.40;99.90;;;;;;5054251;28;20163;-60
2022/03/31 03:26:32;;;;;;;25.27;20.47;;;11.40;99.90;;;;;;5053856;28;20718;-60
2022/03/31 03:28:58;;;;;;;27.67;20.23;;;11.60;99.90;;;;;;5054404;28;20172;-62
2022/03/31 03:31:24;;;;;;;22.77;20.03;;;;;;;;;;5054124;28;20171;-63
2022/03/31 03:33:49;;;;;;;25.27;19.90;;;11.70;99.90;;;;;;5054036;28;20564;-61
2022/03/31 03:36:18;;;;;;;23.70;19.73;;;11.80;99.90;;;;;;5054041;28;20667;-62
2022/03/31 03:38:44;;;;;;;22.30;20.07;;;11.90;99.90;;;;;;5054127;28;20674;-63
2022/03/31 03:41:11;;;;;;;23.47;19.93;;;12.10;99.90;;;;;;5053516;28;20167;-61
2022/03/31 03:43:37;;;;;;;23.73;21.13;;;12.00;99.90;;;;;;5053177;28;20194;-63
2022/03/31 03:46:03;;;;;;;22.40;20.10;;;11.90;99.90;;;;;;5053863;28;20199;-60
2022/03/31 03:48:29;;;;;;;24.00;21.07;;;;;;;;;;5053927;28;20240;-61
2022/03/31 03:50:55;;;;;;;26.37;21.37;;;12.30;99.90;;;;;;5053777;28;20175;-61
2022/03/31 03:53:21;;;;;;;23.23;20.60;;;12.10;99.90;;;;;;5052551;28;20211;-63
2022/03/31 03:55:47;;;;;;;21.27;19.17;;;12.40;99.90;;;;;;5053362;28;20300;-62
2022/03/31 03:58:13;;;;;;;22.53;19.67;;;12.30;99.90;;;;;;5053323;28;20632;-63
2022/03/31 04:00:38;;;;;;;23.20;20.80;;;12.40;99.90;;;;;;5053283;28;20182;-63
2022/03/31 04:03:05;;;;;;;22.37;19.93;;;12.30;99.90;;;;;;5053327;28;20171;-63
2022/03/31 04:05:30;;;;;;;22.33;19.57;;;12.40;99.90;;;;;;5053626;28;20322;-63
2022/03/31 04:07:56;;;;;;;23.37;20.57;;;;;;;;;;5052103;28;20285;-63
2022/03/31 04:10:22;;;;;;;25.77;21.30;;;;;;;;;;5053480;28;20276;-63
2022/03/31 04:12:49;;;;;;;27.93;21.87;;;12.20;99.90;;;;;;5053271;28;20632;-63
2022/03/31 04:15:14;;;;;;;25.33;21.53;;;12.10;99.90;;;;;;5053139;28;20209;-63
2022/03/31 04:17:42;;;;;;;23.37;20.87;;;12.20;99.90;;;;;;5053469;28;20190;-63
2022/03/31 04:20:08;;;;;;;24.90;21.03;;;12.10;99.90;;;;;;5052969;28;20206;-61
2022/03/31 04:22:34;;;;;;;24.70;21.47;;;12.20;99.90;;;;;;5052756;28;20171;-63
2022/03/31 04:25:00;;;;;;;25.33;22.57;;;12.20;99.90;;;;;;5053005;28;20172;-63
2022/03/31 04:27:26;;;;;;;28.13;21.77;;;12.30;99.90;;;;;;5052718;28;20329;-64
2022/03/31 04:29:52;;;;;;;27.60;22.37;;;;;;;;;;5051794;28;20261;-63
2022/03/31 04:32:18;;;;;;;24.97;21.63;;;;;;;;;;5052886;28;20186;-61
2022/03/31 04:34:44;;;;;;;24.73;21.53;;;;;;;;;;5052788;28;20198;-60
2022/03/31 04:37:09;;;;;;;25.13;21.83;;;12.20;99.90;;;;;;5052512;28;20210;-63
2022/03/31 04:39:35;;;;;;;22.83;20.20;;;12.20;99.90;;;;;;5052876;28;20175;-62
2022/03/31 04:42:02;;;;;;;30.53;22.73;;;12.00;99.90;;;;;;5052836;28;20198;-62
2022/03/31 04:44:28;;;;;;;28.77;23.90;;;12.10;99.90;;;;;;5052793;28;20172;-63
2022/03/31 04:46:54;;;;;;;27.43;23.20;;;11.80;99.90;;;;;;5052662;28;20203;-61
2022/03/31 04:49:19;;;;;;;28.73;23.60;;;12.20;99.90;;;;;;5052489;28;20199;-63
2022/03/31 04:51:45;;;;;;;27.83;24.20;;;12.30;99.90;;;;;;5052359;28;20179;-61
2022/03/31 04:54:10;;;;;;;29.63;23.87;;;12.10;99.90;;;;;;5052125;28;20234;-63
2022/03/31 04:56:38;;;;;;;26.53;23.63;;;12.10;99.90;;;;;;5051972;28;20214;-62
2022/03/31 04:59:03;;;;;;;29.13;24.40;;;12.20;99.90;;;;;;5052321;28;20167;-63
2022/03/31 05:01:29;;;;;;;29.20;24.03;;;12.10;99.90;;;;;;5051666;28;20640;-62
2022/03/31 05:03:54;;;;;;;27.57;22.57;;;11.90;99.90;;;;;;5052101;28;20175;-62
2022/03/31 05:06:21;;;;;;;29.43;23.87;;;12.30;99.90;;;;;;5051882;28;20203;-63
2022/03/31 05:08:46;;;;;;;29.30;23.53;;;12.20;99.90;;;;;;5052041;28;20232;-62
2022/03/31 05:11:12;;;;;;;28.40;24.23;;;12.20;99.90;;;;;;5052321;28;20179;-63
2022/03/31 05:13:38;;;;;;;26.33;23.47;;;12.20;99.90;;;;;;5051841;28;20657;-63
2022/03/31 05:16:05;;;;;;;28.23;23.77;;;12.20;99.90;;;;;;5052151;28;20203;-63
2022/03/31 05:18:30;;;;;;;27.33;22.53;;;12.10;99.90;;;;;;5052181;28;20175;-63
2022/03/31 05:20:56;;;;;;;27.40;23.87;;;12.30;99.90;;;;;;5051520;28;20537;-63
2022/03/31 05:23:21;;;;;;;30.80;24.77;;;12.30;99.90;;;;;;5051940;28;20628;-63
2022/03/31 05:25:48;;;;;;;26.37;22.70;;;12.40;99.90;;;;;;5051797;28;20198;-61
2022/03/31 05:28:14;;;;;;;24.93;21.77;;;12.20;99.90;;;;;;5052061;28;20174;-62
2022/03/31 05:30:39;;;;;;;27.20;21.77;;;12.20;99.90;;;;;;5043729;28;20182;-60
2022/03/31 05:33:07;;;;;;;24.03;21.27;;;12.20;99.90;;;;;;5045711;28;20182;-63
2022/03/31 05:35:33;;;;;;;23.20;20.77;;;12.50;99.90;;;;;;5049911;28;20222;-59
2022/03/31 05:37:58;;;;;;;22.43;19.53;;;12.10;99.90;;;;;;5051390;28;20195;-62
2022/03/31 05:40:24;;;;;;;20.80;18.60;;;12.60;99.90;;;;;;5050845;28;20167;-63
2022/03/31 05:42:49;;;;;;;21.17;18.37;;;12.40;99.90;;;;;;5051249;28;20167;-61
2022/03/31 05:45:15;;;;;;;22.57;19.00;;;12.50;99.90;;;;;;5051474;28;20171;-62
2022/03/31 05:47:42;;;;;;;21.77;19.23;;;12.30;99.90;;;;;;5050153;28;20306;-61
2022/03/31 05:50:08;;;;;;;23.60;18.77;;;;;;;;;;5050594;28;20705;-62
2022/03/31 05:52:38;;;;;;;20.53;18.37;;;12.40;99.90;;;;;;5051484;28;20210;-63
2022/03/31 05:55:08;;;;;;;20.20;17.97;;;12.20;99.90;;;;;;5051493;28;20213;-63
2022/03/31 05:57:35;;;;;;;21.13;18.60;;;12.40;99.90;;;;;;5043793;28;20206;-61
2022/03/31 06:00:02;;;;;;;22.47;20.17;;;12.40;99.90;;;;;;5050872;28;20266;-61
2022/03/31 06:02:28;;;;;;;24.97;21.33;;;12.30;99.90;;;;;;5046315;28;20196;-60
2022/03/31 06:04:53;;;;;;;24.20;21.30;;;12.10;99.90;;;;;;5041698;28;20195;-61
2022/03/31 06:07:19;;;;;;;25.27;20.90;;;12.10;99.90;;;;;;5048841;28;20206;-60
2022/03/31 06:09:44;;;;;;;23.77;21.17;;;12.10;99.90;;;;;;5051162;28;20309;-61
2022/03/31 06:12:10;;;;;;;24.87;21.67;;;12.50;99.90;;;;;;5057799;28;20183;-61
2022/03/31 06:14:36;;;;;;;25.07;20.97;;;;;;;;;;5049123;28;20190;-62
2022/03/31 06:17:02;;;;;;;25.50;20.87;;;;;;;;;;5031751;28;20202;-61
2022/03/31 06:19:27;;;;;;;21.70;19.43;;;12.70;99.90;;;;;;5045303;28;20179;-61
2022/03/31 06:21:53;;;;;;;21.93;19.50;;;12.30;99.90;;;;;;5046629;28;20178;-61
2022/03/31 06:24:19;;;;;;;21.60;19.33;;;12.70;99.90;;;;;;5046978;28;20179;-61
2022/03/31 06:26:45;;;;;;;27.43;21.63;;;12.30;99.90;;;;;;5043051;28;20202;-61
2022/03/31 06:29:13;;;;;;;22.70;19.67;;;12.70;99.90;;;;;;5045840;28;20262;-60
2022/03/31 06:31:38;;;;;;;20.60;18.57;;;12.60;99.90;;;;;;5042863;28;20782;-61
2022/03/31 06:34:04;;;;;;;21.23;18.47;;;12.50;99.90;;;;;;5049436;28;20171;-61
2022/03/31 06:36:30;;;;;;;20.93;18.30;;;12.30;99.90;;;;;;5044258;28;20687;-61
2022/03/31 06:38:56;;;;;;;19.90;17.80;;;13.10;99.90;;;;;;5057716;28;20514;-61
2022/03/31 06:41:22;;;;;;;25.17;20.67;;;12.70;99.90;;;;;;5052145;28;20194;-60
2022/03/31 06:43:48;;;;;;;24.40;20.80;;;12.60;99.90;;;;;;5051806;28;20171;-61
2022/03/31 06:46:16;;;;;;;22.37;19.87;;;12.70;99.90;;;;;;5066176;28;20568;-60
2022/03/31 06:48:46;;;;;;;22.93;19.83;;;12.60;99.90;;;;;;5059461;28;20178;-58
2022/03/31 06:51:13;;;;;;;23.93;20.63;;;12.80;99.90;;;;;;5051111;28;20183;-59
2022/03/31 06:53:39;;;;;;;25.50;20.17;;;12.70;99.90;;;;;;5043605;28;20191;-63
2022/03/31 06:56:06;;;;;;;23.90;20.93;;;12.60;99.90;;;;;;5038062;28;20204;-62
2022/03/31 06:58:32;;;;;;;23.47;20.63;;;12.80;99.90;;;;;;5037972;28;20175;-61
2022/03/31 07:00:58;;;;;;;23.20;20.87;;;12.70;99.90;;;;;;5044603;28;20171;-61
2022/03/31 07:03:24;;;;;;;21.77;19.50;;;12.70;99.90;;;;;;5050446;28;20182;-61
2022/03/31 07:05:49;;;;;;;25.17;22.53;;;12.50;99.90;;;;;;5047693;28;20195;-63
2022/03/31 07:08:15;;;;;;;23.27;20.60;;;12.50;99.90;;;;;;5050868;28;20163;-62
2022/03/31 07:10:41;;;;;;;23.40;20.90;;;12.40;99.90;;;;;;5051096;28;20198;-62
2022/03/31 07:13:06;;;;;;;24.10;19.33;;;12.40;99.90;;;;;;5043039;28;20183;-63
2022/03/31 07:15:33;;;;;;;23.67;19.63;;;12.40;99.90;;;;;;5050509;28;20556;-63
2022/03/31 07:18:03;;;;;;;22.43;20.17;;;12.40;99.90;;;;;;5051141;28;20159;-63
2022/03/31 07:20:29;;;;;;;21.37;19.07;;;12.40;99.90;;;;;;5054569;28;20250;-60
2022/03/31 07:22:55;;;;;;;21.90;18.63;;;12.60;99.90;;;;;;5040013;28;20187;-64
2022/03/31 07:25:21;;;;;;;21.73;19.43;;;12.40;99.90;;;;;;5033782;28;20664;-63
2022/03/31 07:27:48;;;;;;;22.63;19.37;;;12.60;99.90;;;;;;5052621;28;20194;-62
2022/03/31 07:30:16;;;;;;;21.47;19.17;;;12.60;99.90;;;;;;5047452;28;20171;-63
2022/03/31 07:33:00;;;;;;;21.27;17.97;;;12.70;99.90;;;;;;5053844;28;20178;-63
2022/03/31 07:35:32;;;;;;;22.53;18.70;;;12.70;99.90;;;;;;5053992;28;20751;-58
2022/03/31 07:37:58;;;;;;;20.73;18.63;;;12.50;99.90;;;;;;5054277;28;20255;-59
2022/03/31 07:40:25;;;;;;;21.93;19.23;;;12.80;99.90;;;;;;5053956;28;20181;-58
2022/03/31 07:42:52;;;;;;;19.60;17.33;;;;;;;;;;5053650;28;20182;-57
2022/03/31 07:45:18;;;;;;;21.30;18.63;;;12.50;99.90;;;;;;5054214;28;20182;-57
2022/03/31 07:47:44;;;;;;;19.77;17.80;;;12.40;99.90;;;;;;5053681;28;20187;-57
2022/03/31 07:50:12;;;;;;;20.07;17.87;;;12.50;99.90;;;;;;5053847;28;20258;-57
2022/03/31 07:52:39;;;;;;;20.23;18.07;;;12.70;99.90;;;;;;5053508;28;20395;-57
2022/03/31 07:55:06;;;;;;;21.00;17.40;;;12.70;99.90;;;;;;5053452;28;20210;-57
2022/03/31 07:57:32;;;;;;;18.87;16.50;;;12.80;99.90;;;;;;5053477;28;20214;-56
2022/03/31 07:59:58;;;;;;;20.83;17.33;;;13.00;99.90;;;;;;5053831;28;20258;-57
2022/03/31 08:02:25;;;;;;;19.10;15.97;;;12.60;99.90;;;;;;5053213;28;20714;-60
2022/03/31 08:04:56;;;;;;;17.30;14.87;;;12.90;99.90;;;;;;5048011;28;20171;-60
2022/03/31 08:07:22;;;;;;;18.97;16.93;;;13.00;99.90;;;;;;5053719;28;20203;-58
2022/03/31 08:09:48;;;;;;;18.00;15.93;;;;;;;;;;5053275;28;20167;-60
2022/03/31 08:12:13;;;;;;;16.33;14.63;;;12.80;99.90;;;;;;5053413;28;20179;-60
2022/03/31 08:14:39;;;;;;;16.47;14.63;;;13.00;99.90;;;;;;5052936;28;20230;-60
2022/03/31 08:17:05;;;;;;;16.93;15.00;;;13.00;99.90;;;;;;5053458;28;20202;-61
2022/03/31 08:19:32;;;;;;;16.23;14.53;;;13.30;99.90;;;;;;5049624;28;20249;-59
2022/03/31 08:22:00;;;;;;;17.43;15.33;;;13.20;99.90;;;;;;5045446;28;20703;-59
2022/03/31 08:24:26;;;;;;;16.57;14.87;;;12.70;99.90;;;;;;5053811;28;20197;-61
2022/03/31 08:26:52;;;;;;;15.83;14.23;;;;;;;;;;5053530;28;20226;-60
2022/03/31 08:29:18;;;;;;;16.20;14.50;;;13.00;99.90;;;;;;5054039;28;20176;-58
2022/03/31 08:31:44;;;;;;;16.57;14.70;;;12.90;99.90;;;;;;5054784;28;20655;-62
2022/03/31 08:34:10;;;;;;;18.33;14.63;;;13.00;99.90;;;;;;5052963;28;20175;-60
2022/03/31 08:36:36;;;;;;;16.97;14.03;;;12.70;99.90;;;;;;5053058;28;20207;-60
2022/03/31 08:39:03;;;;;;;16.27;14.57;;;12.70;99.90;;;;;;5053143;28;20683;-60
2022/03/31 08:41:29;;;;;;;15.83;14.23;;;12.80;99.90;;;;;;5053305;28;20167;-59
2022/03/31 08:43:55;;;;;;;20.23;14.70;;;12.80;99.90;;;;;;5053183;28;20228;-60
2022/03/31 08:46:22;;;;;;;16.57;14.67;;;;;;;;;;5053042;28;20205;-60
2022/03/31 08:48:48;;;;;;;17.47;15.40;;;12.30;99.90;;;;;;5052800;28;20273;-60
2022/03/31 08:51:14;;;;;;;16.93;14.63;;;12.40;99.90;;;;;;5053045;28;20222;-62
2022/03/31 08:53:39;;;;;;;18.07;14.03;;;12.40;99.90;;;;;;5052302;28;20199;-62
2022/03/31 08:56:05;;;;;;;17.00;14.87;;;12.20;99.90;;;;;;5053018;28;20307;-62
2022/03/31 08:58:31;;;;;;;16.53;14.43;;;12.60;99.90;;;;;;5052875;28;20181;-63
2022/03/31 09:00:57;;;;;;;16.63;15.00;;;12.60;99.90;;;;;;5053161;28;20171;-63
2022/03/31 09:03:34;;;;;;;15.47;13.73;;;12.70;99.90;;;;;;5052664;28;20171;-63
2022/03/31 09:06:00;;;;;;;16.73;14.93;;;12.20;99.90;;;;;;5052555;28;20203;-59
2022/03/31 09:08:25;;;;;;;17.00;14.17;;;12.50;99.90;;;;;;5052937;28;20182;-54
2022/03/31 09:10:55;;;;;;;16.13;14.30;;;12.50;99.90;;;;;;5052558;28;20171;-60
2022/03/31 09:13:23;;;;;;;18.30;16.10;;;12.70;99.90;;;;;;5052437;28;20542;-60
2022/03/31 09:16:08;;;;;;;16.10;13.27;;;12.60;99.90;;;;;;5052493;28;20207;-59
2022/03/31 09:18:34;;;;;;;15.63;13.93;;;12.80;99.90;;;;;;5033802;28;20176;-60
2022/03/31 09:21:03;;;;;;;15.77;14.17;;;13.00;99.90;;;;;;5034813;28;20178;-61
2022/03/31 09:23:41;;;;;;;15.60;13.97;;;13.10;99.90;;;;;;5032199;28;20172;-60
2022/03/31 09:26:12;;;;;;;15.10;13.60;;;12.80;99.90;;;;;;5032006;28;20687;-60
2022/03/31 09:28:38;;;;;;;13.97;12.43;;;12.90;99.90;;;;;;5045895;28;20179;-55
2022/03/31 09:31:08;;;;;;;14.60;12.33;;;12.90;99.90;;;;;;5052075;28;20190;-61
2022/03/31 09:33:41;;;;;;;13.30;11.43;;;12.70;99.90;;;;;;5051803;28;20167;-58
2022/03/31 09:36:11;;;;;;;12.93;11.53;;;13.00;99.90;;;;;;5047389;28;20294;-62
2022/03/31 09:38:39;;;;;;;16.10;11.43;;;13.00;99.90;;;;;;5033454;28;20179;-61
2022/03/31 09:41:19;;;;;;;13.07;10.83;;;12.90;99.90;;;;;;5048231;28;20171;-57
2022/03/31 09:43:47;;;;;;;14.23;12.30;;;12.80;99.90;;;;;;5039987;28;20172;-61
2022/03/31 09:46:21;;;;;;;13.47;11.03;;;13.10;99.90;;;;;;5047201;28;20286;-59
2022/03/31 09:48:48;;;;;;;13.33;11.87;;;12.60;99.90;;;;;;5046662;28;20718;-54
2022/03/31 09:51:14;;;;;;;13.57;11.47;;;12.60;99.90;;;;;;5051703;28;20628;-55
2022/03/31 09:53:41;;;;;;;14.67;11.10;;;12.60;99.90;;;;;;5055954;28;20189;-60
2022/03/31 09:56:06;;;;;;;12.80;10.93;;;12.80;99.90;;;;;;5048971;28;20213;-60
2022/03/31 09:58:37;;;;;;;11.83;10.63;;;12.40;99.90;;;;;;5051285;28;20533;-61
2022/03/31 10:01:03;;;;;;;11.73;10.23;;;12.40;99.90;;;;;;5050248;28;20179;-61
2022/03/31 10:03:29;;;;;;;10.83;9.67;;;12.20;99.90;;;;;;5050250;28;20644;-61
2022/03/31 10:05:55;;;;;;;11.80;10.60;;;12.20;99.90;;;;;;5051251;28;20195;-61
2022/03/31 10:08:22;;;;;;;11.00;9.90;;;12.20;99.90;;;;;;5051111;28;20175;-61
2022/03/31 10:10:48;;;;;;;11.70;10.50;;;12.20;99.90;;;;;;5035903;28;20262;-61
2022/03/31 10:13:22;;;;;;;12.03;9.90;;;12.20;99.90;;;;;;5043121;28;20228;-61
2022/03/31 10:15:58;;;;;;;11.93;9.70;;;12.10;99.90;;;;;;5050551;28;20210;-61
2022/03/31 10:18:24;;;;;;;11.23;9.43;;;12.00;99.90;;;;;;5045283;28;20179;-60
2022/03/31 10:20:57;;;;;;;11.87;9.03;;;11.90;99.90;;;;;;5049976;28;20182;-61
2022/03/31 10:26:08;;;;;;;9.97;8.87;;;11.80;99.90;;;;;;5057701;28;20333;-61
2022/03/31 10:28:34;;;;;;;11.20;9.40;;;11.70;99.90;;;;;;5042480;28;20191;-61
2022/03/31 10:31:02;;;;;;;10.10;8.53;;;11.40;99.90;;;;;;5047225;28;20176;-60
2022/03/31 10:33:38;;;;;;;10.63;8.97;;;11.70;99.90;;;;;;5042002;28;20667;-59
2022/03/31 10:36:12;;;;;;;11.30;9.33;;;11.60;99.90;;;;;;5040339;28;20209;-61
2022/03/31 10:38:39;;;;;;;10.87;9.17;;;11.70;99.90;;;;;;5048102;28;20225;-60
2022/03/31 10:41:12;;;;;;;10.63;8.70;;;11.70;99.90;;;;;;5045089;28;20581;-61
2022/03/31 10:43:47;;;;;;;11.97;9.17;;;11.70;99.90;;;;;;5050023;28;20183;-59
2022/03/31 10:46:20;;;;;;;10.83;9.07;;;11.80;99.90;;;;;;5050436;28;20187;-58
2022/03/31 10:48:51;;;;;;;10.10;9.10;;;12.00;99.90;;;;;;5041828;28;20596;-61
2022/03/31 10:51:17;;;;;;;10.27;9.17;;;12.00;99.90;;;;;;5039400;28;20214;-56
2022/03/31 10:53:50;;;;;;;10.63;9.53;;;11.90;99.90;;;;;;5051374;28;20584;-59
2022/03/31 10:56:19;;;;;;;9.90;8.90;;;11.90;99.90;;;;;;5054325;28;20207;-58
2022/03/31 10:58:45;;;;;;;10.60;8.90;;;12.00;99.90;;;;;;5053997;28;20671;-58
2022/03/31 11:01:12;;;;;;;11.80;9.70;;;12.10;99.90;;;;;;5053847;28;20183;-58
2022/03/31 11:03:38;;;;;;;10.40;8.63;;;12.10;99.90;;;;;;5054297;28;20172;-58
2022/03/31 11:06:10;;;;;;;9.47;8.47;;;12.00;99.90;;;;;;5054184;28;20195;-58
2022/03/31 11:08:47;;;;;;;10.57;9.20;;;12.10;99.90;;;;;;5054633;28;20756;-59
2022/03/31 11:11:25;;;;;;;9.80;8.80;;;12.10;99.90;;;;;;5053909;28;20305;-59
2022/03/31 11:13:54;;;;;;;11.50;8.97;;;12.10;99.90;;;;;;5053981;28;20179;-59
2022/03/31 11:16:21;;;;;;;11.43;8.87;;;12.20;99.90;;;;;;5050268;28;20710;-58
2022/03/31 11:18:55;;;;;;;10.20;9.10;;;12.40;99.90;;;;;;5043371;28;20179;-57
2022/03/31 11:21:21;;;;;;;9.70;8.70;;;12.40;99.90;;;;;;5053487;28;20660;-59
2022/03/31 11:23:48;;;;;;;11.27;9.90;;;12.50;99.90;;;;;;5052476;28;20182;-57
2022/03/31 11:26:28;;;;;;;10.37;9.27;;;12.60;99.90;;;;;;5053739;28;20198;-59
2022/03/31 11:28:54;;;;;;;11.30;9.37;;;12.70;99.90;;;;;;5053799;28;20171;-60
2022/03/31 11:31:21;;;;;;;11.23;10.07;;;12.80;99.90;;;;;;5053761;28;20204;-61
2022/03/31 11:33:48;;;;;;;11.07;9.77;;;12.90;99.90;;;;;;5053753;28;20183;-60
2022/03/31 11:36:13;;;;;;;15.50;12.63;;;13.00;99.90;;;;;;5052388;28;20199;-59
2022/03/31 11:38:39;;;;;;;11.20;10.00;;;13.00;99.90;;;;;;5053503;28;20174;-56
2022/03/31 11:41:05;;;;;;;10.30;8.70;;;13.20;99.90;;;;;;5053030;28;20254;-60
2022/03/31 11:43:32;;;;;;;9.10;8.10;;;13.10;99.90;;;;;;5050808;28;20714;-60
2022/03/31 11:45:58;;;;;;;9.07;7.77;;;13.10;99.90;;;;;;5053664;28;20611;-57
2022/03/31 11:48:33;;;;;;;14.70;13.20;;;13.20;99.90;;;;;;5053288;28;20175;-56
2022/03/31 11:51:01;;;;;;;11.93;8.67;;;13.30;99.90;;;;;;5053355;28;20678;-57
2022/03/31 11:53:30;;;;;;;8.40;7.50;;;13.30;99.90;;;;;;5051829;28;20210;-58
2022/03/31 11:56:00;;;;;;;9.57;8.57;;;13.40;99.90;;;;;;5049385;28;20252;-59
2022/03/31 11:58:32;;;;;;;9.67;8.70;;;13.50;99.90;;;;;;5052963;28;20256;-57
2022/03/31 12:00:58;;;;;;;9.17;8.20;;;;;;;;;;5052919;28;20182;-59
2022/03/31 12:03:33;;;;;;;7.70;6.90;;;13.60;99.90;;;;;;5052566;28;20167;-58
2022/03/31 12:06:00;;;;;;;8.37;7.57;;;13.70;99.90;;;;;;5052922;28;20191;-55
2022/03/31 12:08:27;;;;;;;8.90;8.00;;;13.70;99.90;;;;;;5053334;28;20217;-56
2022/03/31 12:10:53;;;;;;;8.50;7.70;;;13.70;99.90;;;;;;5053480;28;20632;-58
2022/03/31 12:13:20;;;;;;;8.80;7.93;;;13.80;99.90;;;;;;5052883;28;20591;-59
2022/03/31 12:15:46;;;;;;;8.10;7.30;;;14.10;99.90;;;;;;5052469;28;20253;-58
2022/03/31 12:18:16;;;;;;;8.43;7.53;;;14.00;99.90;;;;;;5052981;28;20238;-59
2022/03/31 12:20:43;;;;;;;8.00;7.20;;;14.00;99.90;;;;;;5046327;28;20713;-57
2022/03/31 12:23:20;;;;;;;8.17;7.37;;;14.10;99.90;;;;;;5032941;28;20262;-58
2022/03/31 12:25:47;;;;;;;8.87;7.83;;;14.00;99.90;;;;;;5048149;28;20206;-58
2022/03/31 12:28:13;;;;;;;7.17;6.47;;;14.00;99.90;;;;;;5052217;28;20180;-55
2022/03/31 12:30:47;;;;;;;7.50;6.77;;;14.00;99.90;;;;;;5052851;28;20289;-56
2022/03/31 12:33:31;;;;;;;7.53;6.83;;;13.90;99.90;;;;;;5052437;28;20553;-57
2022/03/31 12:36:06;;;;;;;8.40;7.60;;;13.90;99.90;;;;;;5052397;28;20210;-58
2022/03/31 12:38:39;;;;;;;7.30;6.60;;;14.10;99.90;;;;;;5052558;28;20190;-58
2022/03/31 12:41:19;;;;;;;6.37;5.77;;;14.40;99.90;;;;;;5050214;28;20656;-59
2022/03/31 12:44:16;;;;;;;6.17;5.57;;;14.50;99.90;;;;;;5049996;28;20535;-58